sensor_id;sensor_type;location;lat;lon;timestamp;temperature;humidity
23579;DHT22;11967;50.852;4.400;2024-03-02T00:00:38;9.60;99.90
23579;DHT22;11967;50.852;4.400;2024-03-02T00:03:07;9.50;99.90
23579;DHT22;11967;50.852;4.400;2024-03-02T00:05:40;9.60;99.90
23579;DHT22;11967;50.852;4.400;2024-03-02T00:08:10;9.40;99.90
23579;DHT22;11967;50.852;4.400;2024-03-02T00:10:39;9.40;99.90
23579;DHT22;11967;50.852;4.400;2024-03-02T00:13:09;9.40;99.90
23579;DHT22;11967;50.852;4.400;2024-03-02T00:18:38;9.40;99.90
23579;DHT22;11967;50.852;4.400;2024-03-02T00:21:06;9.40;99.90
23579;DHT22;11967;50.852;4.400;2024-03-02T00:23:33;9.60;99.90
23579;DHT22;11967;50.852;4.400;2024-03-02T00:26:00;9.50;99.90
23579;DHT22;11967;50.852;4.400;2024-03-02T00:28:34;9.50;99.90
23579;DHT22;11967;50.852;4.400;2024-03-02T00:31:11;9.50;99.90
23579;DHT22;11967;50.852;4.400;2024-03-02T00:33:46;9.50;99.90
23579;DHT22;11967;50.852;4.400;2024-03-02T00:36:14;9.50;99.90
23579;DHT22;11967;50.852;4.400;2024-03-02T00:38:51;9.50;99.90
23579;DHT22;11967;50.852;4.400;2024-03-02T00:41:27;9.60;99.90
23579;DHT22;11967;50.852;4.400;2024-03-02T00:44:03;9.60;99.90
23579;DHT22;11967;50.852;4.400;2024-03-02T00:46:40;9.60;99.90
23579;DHT22;11967;50.852;4.400;2024-03-02T00:49:34;9.70;99.90
23579;DHT22;11967;50.852;4.400;2024-03-02T00:51:59;9.60;99.90
23579;DHT22;11967;50.852;4.400;2024-03-02T00:54:29;9.70;99.90
23579;DHT22;11967;50.852;4.400;2024-03-02T00:57:02;9.60;99.90
23579;DHT22;11967;50.852;4.400;2024-03-02T00:59:29;9.60;99.90
23579;DHT22;11967;50.852;4.400;2024-03-02T01:01:57;9.60;99.90
23579;DHT22;11967;50.852;4.400;2024-03-02T01:04:30;9.60;99.90
23579;DHT22;11967;50.852;4.400;2024-03-02T01:06:56;9.70;99.90
23579;DHT22;11967;50.852;4.400;2024-03-02T01:09:24;9.60;99.90
23579;DHT22;11967;50.852;4.400;2024-03-02T01:11:50;9.60;99.90
23579;DHT22;11967;50.852;4.400;2024-03-02T01:14:22;9.60;99.90
23579;DHT22;11967;50.852;4.400;2024-03-02T01:16:48;9.60;99.90
23579;DHT22;11967;50.852;4.400;2024-03-02T01:19:14;9.70;99.90
23579;DHT22;11967;50.852;4.400;2024-03-02T01:21:41;9.70;99.90
23579;DHT22;11967;50.852;4.400;2024-03-02T01:24:06;9.70;99.90
23579;DHT22;11967;50.852;4.400;2024-03-02T01:26:32;9.60;99.90
23579;DHT22;11967;50.852;4.400;2024-03-02T01:29:00;9.60;99.90
23579;DHT22;11967;50.852;4.400;2024-03-02T01:31:29;9.70;99.90
23579;DHT22;11967;50.852;4.400;2024-03-02T01:33:57;9.70;99.90
23579;DHT22;11967;50.852;4.400;2024-03-02T01:36:23;9.80;99.90
23579;DHT22;11967;50.852;4.400;2024-03-02T01:38:49;9.80;99.90
23579;DHT22;11967;50.852;4.400;2024-03-02T01:41:15;9.70;99.90
23579;DHT22;11967;50.852;4.400;2024-03-02T01:43:41;9.70;99.90
23579;DHT22;11967;50.852;4.400;2024-03-02T01:46:10;9.70;99.90
23579;DHT22;11967;50.852;4.400;2024-03-02T01:48:41;9.70;99.90
23579;DHT22;11967;50.852;4.400;2024-03-02T01:51:07;9.70;99.90
23579;DHT22;11967;50.852;4.400;2024-03-02T01:53:33;9.60;99.90
23579;DHT22;11967;50.852;4.400;2024-03-02T01:55:59;9.70;99.90
23579;DHT22;11967;50.852;4.400;2024-03-02T01:58:27;9.60;99.90
23579;DHT22;11967;50.852;4.400;2024-03-02T02:00:53;9.60;99.90
23579;DHT22;11967;50.852;4.400;2024-03-02T02:03:19;9.70;99.90
23579;DHT22;11967;50.852;4.400;2024-03-02T02:05:45;9.70;99.90
23579;DHT22;11967;50.852;4.400;2024-03-02T02:08:13;9.70;99.90
23579;DHT22;11967;50.852;4.400;2024-03-02T02:10:39;9.70;99.90
23579;DHT22;11967;50.852;4.400;2024-03-02T02:13:05;9.80;99.90
23579;DHT22;11967;50.852;4.400;2024-03-02T02:15:31;9.70;99.90
23579;DHT22;11967;50.852;4.400;2024-03-02T02:18:00;9.70;99.90
23579;DHT22;11967;50.852;4.400;2024-03-02T02:20:26;9.70;99.90
23579;DHT22;11967;50.852;4.400;2024-03-02T02:23:05;9.70;99.90
23579;DHT22;11967;50.852;4.400;2024-03-02T02:25:31;9.80;99.90
23579;DHT22;11967;50.852;4.400;2024-03-02T02:27:57;9.70;99.90
23579;DHT22;11967;50.852;4.400;2024-03-02T02:30:25;9.70;99.90
23579;DHT22;11967;50.852;4.400;2024-03-02T02:32:52;9.70;99.90
23579;DHT22;11967;50.852;4.400;2024-03-02T02:35:19;9.80;99.90
23579;DHT22;11967;50.852;4.400;2024-03-02T02:37:46;9.80;99.90
23579;DHT22;11967;50.852;4.400;2024-03-02T02:40:12;9.80;99.90
23579;DHT22;11967;50.852;4.400;2024-03-02T02:42:40;9.80;99.90
23579;DHT22;11967;50.852;4.400;2024-03-02T02:45:07;9.70;99.90
23579;DHT22;11967;50.852;4.400;2024-03-02T02:47:33;9.70;99.90
23579;DHT22;11967;50.852;4.400;2024-03-02T02:50:02;9.70;99.90
23579;DHT22;11967;50.852;4.400;2024-03-02T02:52:34;9.80;99.90
23579;DHT22;11967;50.852;4.400;2024-03-02T02:55:02;9.80;99.90
23579;DHT22;11967;50.852;4.400;2024-03-02T02:57:28;9.80;99.90
23579;DHT22;11967;50.852;4.400;2024-03-02T02:59:56;9.70;99.90
23579;DHT22;11967;50.852;4.400;2024-03-02T03:02:23;9.80;99.90
23579;DHT22;11967;50.852;4.400;2024-03-02T03:04:51;9.70;99.90
23579;DHT22;11967;50.852;4.400;2024-03-02T03:07:18;9.70;99.90
23579;DHT22;11967;50.852;4.400;2024-03-02T03:09:43;9.60;99.90
23579;DHT22;11967;50.852;4.400;2024-03-02T03:12:09;9.60;99.90
23579;DHT22;11967;50.852;4.400;2024-03-02T03:14:35;9.60;99.90
23579;DHT22;11967;50.852;4.400;2024-03-02T03:17:01;9.60;99.90
23579;DHT22;11967;50.852;4.400;2024-03-02T03:19:27;9.70;99.90
23579;DHT22;11967;50.852;4.400;2024-03-02T03:21:52;9.70;99.90
23579;DHT22;11967;50.852;4.400;2024-03-02T03:24:18;9.70;99.90
23579;DHT22;11967;50.852;4.400;2024-03-02T03:26:44;9.60;99.90
23579;DHT22;11967;50.852;4.400;2024-03-02T03:29:10;9.60;99.90
23579;DHT22;11967;50.852;4.400;2024-03-02T03:31:36;9.70;99.90
23579;DHT22;11967;50.852;4.400;2024-03-02T03:34:01;9.60;99.90
23579;DHT22;11967;50.852;4.400;2024-03-02T03:36:27;9.60;99.90
23579;DHT22;11967;50.852;4.400;2024-03-02T03:38:53;9.60;99.90
23579;DHT22;11967;50.852;4.400;2024-03-02T03:41:18;9.60;99.90
23579;DHT22;11967;50.852;4.400;2024-03-02T03:43:44;9.60;99.90
23579;DHT22;11967;50.852;4.400;2024-03-02T03:46:10;9.60;99.90
23579;DHT22;11967;50.852;4.400;2024-03-02T03:48:35;9.60;99.90
23579;DHT22;11967;50.852;4.400;2024-03-02T03:51:04;9.70;99.90
23579;DHT22;11967;50.852;4.400;2024-03-02T03:53:32;9.60;99.90
23579;DHT22;11967;50.852;4.400;2024-03-02T03:56:00;9.60;99.90
23579;DHT22;11967;50.852;4.400;2024-03-02T03:58:27;9.70;99.90
23579;DHT22;11967;50.852;4.400;2024-03-02T04:00:55;9.70;99.90
23579;DHT22;11967;50.852;4.400;2024-03-02T04:03:22;9.80;99.90
23579;DHT22;11967;50.852;4.400;2024-03-02T04:05:48;9.70;99.90
23579;DHT22;11967;50.852;4.400;2024-03-02T04:08:16;9.70;99.90
23579;DHT22;11967;50.852;4.400;2024-03-02T04:10:42;9.70;99.90
23579;DHT22;11967;50.852;4.400;2024-03-02T04:13:08;9.60;99.90
23579;DHT22;11967;50.852;4.400;2024-03-02T04:15:35;9.60;99.90
23579;DHT22;11967;50.852;4.400;2024-03-02T04:18:00;9.60;99.90
23579;DHT22;11967;50.852;4.400;2024-03-02T04:20:26;9.60;99.90
23579;DHT22;11967;50.852;4.400;2024-03-02T04:22:53;9.70;99.90
23579;DHT22;11967;50.852;4.400;2024-03-02T04:25:18;9.70;99.90
23579;DHT22;11967;50.852;4.400;2024-03-02T04:27:45;9.70;99.90
23579;DHT22;11967;50.852;4.400;2024-03-02T04:30:11;9.70;99.90
23579;DHT22;11967;50.852;4.400;2024-03-02T04:32:37;9.70;99.90
23579;DHT22;11967;50.852;4.400;2024-03-02T04:35:06;9.70;99.90
23579;DHT22;11967;50.852;4.400;2024-03-02T04:37:36;9.70;99.90
23579;DHT22;11967;50.852;4.400;2024-03-02T04:40:05;9.60;99.90
23579;DHT22;11967;50.852;4.400;2024-03-02T04:42:38;9.60;99.90
23579;DHT22;11967;50.852;4.400;2024-03-02T04:45:07;9.60;99.90
23579;DHT22;11967;50.852;4.400;2024-03-02T04:47:34;9.70;99.90
23579;DHT22;11967;50.852;4.400;2024-03-02T04:50:00;9.70;99.90
23579;DHT22;11967;50.852;4.400;2024-03-02T04:52:26;9.60;99.90
23579;DHT22;11967;50.852;4.400;2024-03-02T04:54:54;9.60;99.90
23579;DHT22;11967;50.852;4.400;2024-03-02T04:57:39;9.60;99.90
23579;DHT22;11967;50.852;4.400;2024-03-02T05:00:07;9.60;99.90
23579;DHT22;11967;50.852;4.400;2024-03-02T05:03:14;9.70;99.90
23579;DHT22;11967;50.852;4.400;2024-03-02T05:09:07;9.60;99.90
23579;DHT22;11967;50.852;4.400;2024-03-02T05:11:33;9.60;99.90
23579;DHT22;11967;50.852;4.400;2024-03-02T05:14:08;9.60;99.90
23579;DHT22;11967;50.852;4.400;2024-03-02T05:16:40;9.60;99.90
23579;DHT22;11967;50.852;4.400;2024-03-02T05:19:13;9.60;99.90
23579;DHT22;11967;50.852;4.400;2024-03-02T05:21:43;9.60;99.90
23579;DHT22;11967;50.852;4.400;2024-03-02T05:24:28;9.60;99.90
23579;DHT22;11967;50.852;4.400;2024-03-02T05:33:38;9.50;99.90
23579;DHT22;11967;50.852;4.400;2024-03-02T05:36:04;9.50;99.90
23579;DHT22;11967;50.852;4.400;2024-03-02T05:38:30;9.60;99.90
23579;DHT22;11967;50.852;4.400;2024-03-02T05:40:56;9.60;99.90
23579;DHT22;11967;50.852;4.400;2024-03-02T05:43:23;9.60;99.90
23579;DHT22;11967;50.852;4.400;2024-03-02T05:45:49;9.60;99.90
23579;DHT22;11967;50.852;4.400;2024-03-02T05:48:15;9.40;99.90
23579;DHT22;11967;50.852;4.400;2024-03-02T05:50:42;9.40;99.90
23579;DHT22;11967;50.852;4.400;2024-03-02T05:53:07;9.40;99.90
23579;DHT22;11967;50.852;4.400;2024-03-02T05:55:33;9.40;99.90
23579;DHT22;11967;50.852;4.400;2024-03-02T05:58:00;9.30;99.90
23579;DHT22;11967;50.852;4.400;2024-03-02T06:00:33;9.50;99.90
23579;DHT22;11967;50.852;4.400;2024-03-02T06:02:59;9.40;99.90
23579;DHT22;11967;50.852;4.400;2024-03-02T06:05:25;9.40;99.90
23579;DHT22;11967;50.852;4.400;2024-03-02T06:07:50;9.40;99.90
23579;DHT22;11967;50.852;4.400;2024-03-02T06:10:16;9.40;99.90
23579;DHT22;11967;50.852;4.400;2024-03-02T06:12:44;9.40;99.90
23579;DHT22;11967;50.852;4.400;2024-03-02T06:15:12;9.40;99.90
23579;DHT22;11967;50.852;4.400;2024-03-02T06:17:44;9.40;99.90
23579;DHT22;11967;50.852;4.400;2024-03-02T06:20:10;9.40;99.90
23579;DHT22;11967;50.852;4.400;2024-03-02T06:22:36;9.40;99.90
23579;DHT22;11967;50.852;4.400;2024-03-02T06:25:02;9.40;99.90
23579;DHT22;11967;50.852;4.400;2024-03-02T06:27:27;9.30;99.90
23579;DHT22;11967;50.852;4.400;2024-03-02T06:29:55;9.30;99.90
23579;DHT22;11967;50.852;4.400;2024-03-02T06:32:21;9.30;99.90
23579;DHT22;11967;50.852;4.400;2024-03-02T06:34:50;9.30;99.90
23579;DHT22;11967;50.852;4.400;2024-03-02T06:37:18;9.30;99.90
23579;DHT22;11967;50.852;4.400;2024-03-02T06:39:44;9.30;99.90
23579;DHT22;11967;50.852;4.400;2024-03-02T06:42:09;9.40;99.90
23579;DHT22;11967;50.852;4.400;2024-03-02T06:44:35;9.30;99.90
23579;DHT22;11967;50.852;4.400;2024-03-02T06:47:01;9.40;99.90
23579;DHT22;11967;50.852;4.400;2024-03-02T06:49:26;9.40;99.90
23579;DHT22;11967;50.852;4.400;2024-03-02T06:51:52;9.30;99.90
23579;DHT22;11967;50.852;4.400;2024-03-02T06:54:17;9.50;99.90
23579;DHT22;11967;50.852;4.400;2024-03-02T06:56:43;9.40;99.90
23579;DHT22;11967;50.852;4.400;2024-03-02T06:59:09;9.30;99.90
23579;DHT22;11967;50.852;4.400;2024-03-02T07:01:35;9.30;99.90
23579;DHT22;11967;50.852;4.400;2024-03-02T07:04:01;9.30;99.90
23579;DHT22;11967;50.852;4.400;2024-03-02T07:06:28;9.30;99.90
23579;DHT22;11967;50.852;4.400;2024-03-02T07:08:53;9.30;99.90
23579;DHT22;11967;50.852;4.400;2024-03-02T07:11:19;9.30;99.90
23579;DHT22;11967;50.852;4.400;2024-03-02T07:13:44;9.30;99.90
23579;DHT22;11967;50.852;4.400;2024-03-02T07:16:10;9.30;99.90
23579;DHT22;11967;50.852;4.400;2024-03-02T07:18:54;9.40;99.90
23579;DHT22;11967;50.852;4.400;2024-03-02T07:21:21;9.30;99.90
23579;DHT22;11967;50.852;4.400;2024-03-02T07:23:48;9.40;99.90
23579;DHT22;11967;50.852;4.400;2024-03-02T07:26:13;9.40;99.90
23579;DHT22;11967;50.852;4.400;2024-03-02T07:28:42;9.50;99.90
23579;DHT22;11967;50.852;4.400;2024-03-02T07:31:07;9.40;99.90
23579;DHT22;11967;50.852;4.400;2024-03-02T07:33:33;9.40;99.90
23579;DHT22;11967;50.852;4.400;2024-03-02T07:35:59;9.40;99.90
23579;DHT22;11967;50.852;4.400;2024-03-02T07:38:28;9.50;99.90
23579;DHT22;11967;50.852;4.400;2024-03-02T07:40:54;9.40;99.90
23579;DHT22;11967;50.852;4.400;2024-03-02T07:43:20;9.50;99.90
23579;DHT22;11967;50.852;4.400;2024-03-02T07:45:46;9.50;99.90
23579;DHT22;11967;50.852;4.400;2024-03-02T07:48:12;9.50;99.90
23579;DHT22;11967;50.852;4.400;2024-03-02T07:50:38;9.50;99.90
23579;DHT22;11967;50.852;4.400;2024-03-02T07:53:05;9.40;99.90
23579;DHT22;11967;50.852;4.400;2024-03-02T07:55:31;9.50;99.90
23579;DHT22;11967;50.852;4.400;2024-03-02T07:57:57;9.50;99.90
23579;DHT22;11967;50.852;4.400;2024-03-02T08:00:23;9.50;99.90
23579;DHT22;11967;50.852;4.400;2024-03-02T08:02:52;9.60;99.90
23579;DHT22;11967;50.852;4.400;2024-03-02T08:05:18;9.70;99.90
23579;DHT22;11967;50.852;4.400;2024-03-02T08:07:46;9.70;99.90
23579;DHT22;11967;50.852;4.400;2024-03-02T08:10:14;9.60;99.90
23579;DHT22;11967;50.852;4.400;2024-03-02T08:12:39;9.60;99.90
23579;DHT22;11967;50.852;4.400;2024-03-02T08:15:06;9.60;99.90
23579;DHT22;11967;50.852;4.400;2024-03-02T08:17:32;9.60;99.90
23579;DHT22;11967;50.852;4.400;2024-03-02T08:19:58;9.60;99.90
23579;DHT22;11967;50.852;4.400;2024-03-02T08:22:24;9.70;99.90
23579;DHT22;11967;50.852;4.400;2024-03-02T08:24:52;9.80;99.90
23579;DHT22;11967;50.852;4.400;2024-03-02T08:27:18;9.80;99.90
23579;DHT22;11967;50.852;4.400;2024-03-02T08:29:44;9.80;99.90
23579;DHT22;11967;50.852;4.400;2024-03-02T08:32:09;9.80;99.90
23579;DHT22;11967;50.852;4.400;2024-03-02T08:34:36;9.80;99.90
23579;DHT22;11967;50.852;4.400;2024-03-02T08:37:02;9.80;99.90
23579;DHT22;11967;50.852;4.400;2024-03-02T08:39:28;9.80;99.90
23579;DHT22;11967;50.852;4.400;2024-03-02T08:41:54;9.90;99.90
23579;DHT22;11967;50.852;4.400;2024-03-02T08:44:20;10.10;99.90
23579;DHT22;11967;50.852;4.400;2024-03-02T08:46:45;10.20;99.90
23579;DHT22;11967;50.852;4.400;2024-03-02T08:49:12;10.20;99.90
23579;DHT22;11967;50.852;4.400;2024-03-02T08:51:37;10.20;99.90
23579;DHT22;11967;50.852;4.400;2024-03-02T08:54:03;10.20;99.90
23579;DHT22;11967;50.852;4.400;2024-03-02T08:56:30;10.20;99.90
23579;DHT22;11967;50.852;4.400;2024-03-02T08:58:56;10.20;99.90
23579;DHT22;11967;50.852;4.400;2024-03-02T09:01:22;10.20;99.90
23579;DHT22;11967;50.852;4.400;2024-03-02T09:03:48;10.20;99.90
23579;DHT22;11967;50.852;4.400;2024-03-02T09:06:14;10.40;99.90
23579;DHT22;11967;50.852;4.400;2024-03-02T09:08:42;10.50;99.90
23579;DHT22;11967;50.852;4.400;2024-03-02T09:11:11;10.50;99.90
23579;DHT22;11967;50.852;4.400;2024-03-02T09:13:38;10.60;99.90
23579;DHT22;11967;50.852;4.400;2024-03-02T09:16:05;10.70;99.90
23579;DHT22;11967;50.852;4.400;2024-03-02T09:18:31;10.70;99.90
23579;DHT22;11967;50.852;4.400;2024-03-02T09:20:57;10.60;99.90
23579;DHT22;11967;50.852;4.400;2024-03-02T09:23:22;10.70;99.90
23579;DHT22;11967;50.852;4.400;2024-03-02T09:25:48;10.90;99.90
23579;DHT22;11967;50.852;4.400;2024-03-02T09:28:15;11.00;99.90
23579;DHT22;11967;50.852;4.400;2024-03-02T09:30:41;11.10;99.90
23579;DHT22;11967;50.852;4.400;2024-03-02T09:33:06;11.30;99.90
23579;DHT22;11967;50.852;4.400;2024-03-02T09:35:32;11.30;99.90
23579;DHT22;11967;50.852;4.400;2024-03-02T09:37:58;11.40;99.90
23579;DHT22;11967;50.852;4.400;2024-03-02T09:40:23;11.40;99.90
23579;DHT22;11967;50.852;4.400;2024-03-02T09:42:50;11.40;99.90
23579;DHT22;11967;50.852;4.400;2024-03-02T09:45:25;11.50;99.90
23579;DHT22;11967;50.852;4.400;2024-03-02T09:47:52;11.40;99.90
23579;DHT22;11967;50.852;4.400;2024-03-02T09:50:17;11.30;99.90
23579;DHT22;11967;50.852;4.400;2024-03-02T09:52:43;11.30;99.90
23579;DHT22;11967;50.852;4.400;2024-03-02T09:55:09;11.30;99.90
23579;DHT22;11967;50.852;4.400;2024-03-02T09:57:35;11.40;99.90
23579;DHT22;11967;50.852;4.400;2024-03-02T10:00:01;11.50;99.90
23579;DHT22;11967;50.852;4.400;2024-03-02T10:02:27;11.60;99.90
23579;DHT22;11967;50.852;4.400;2024-03-02T10:04:53;11.60;99.90
23579;DHT22;11967;50.852;4.400;2024-03-02T10:07:19;11.70;99.90
23579;DHT22;11967;50.852;4.400;2024-03-02T10:09:46;11.80;99.90
23579;DHT22;11967;50.852;4.400;2024-03-02T10:12:13;11.80;99.90
23579;DHT22;11967;50.852;4.400;2024-03-02T10:14:39;12.10;99.90
23579;DHT22;11967;50.852;4.400;2024-03-02T10:17:07;12.10;99.90
23579;DHT22;11967;50.852;4.400;2024-03-02T10:19:34;12.20;99.90
23579;DHT22;11967;50.852;4.400;2024-03-02T10:22:07;12.30;99.90
23579;DHT22;11967;50.852;4.400;2024-03-02T10:24:43;12.50;99.90
23579;DHT22;11967;50.852;4.400;2024-03-02T10:27:17;12.60;99.90
23579;DHT22;11967;50.852;4.400;2024-03-02T10:29:46;12.70;99.90
23579;DHT22;11967;50.852;4.400;2024-03-02T10:32:12;12.70;99.90
23579;DHT22;11967;50.852;4.400;2024-03-02T10:34:40;12.80;99.90
23579;DHT22;11967;50.852;4.400;2024-03-02T10:37:06;12.80;99.90
23579;DHT22;11967;50.852;4.400;2024-03-02T10:39:35;12.90;99.90
23579;DHT22;11967;50.852;4.400;2024-03-02T10:42:03;12.70;99.90
23579;DHT22;11967;50.852;4.400;2024-03-02T10:44:30;12.80;99.90
23579;DHT22;11967;50.852;4.400;2024-03-02T10:46:56;12.90;99.90
23579;DHT22;11967;50.852;4.400;2024-03-02T10:49:23;13.00;99.90
23579;DHT22;11967;50.852;4.400;2024-03-02T10:51:50;13.10;99.90
23579;DHT22;11967;50.852;4.400;2024-03-02T10:54:16;13.10;99.90
23579;DHT22;11967;50.852;4.400;2024-03-02T10:56:44;13.00;99.90
23579;DHT22;11967;50.852;4.400;2024-03-02T10:59:27;12.90;99.90
23579;DHT22;11967;50.852;4.400;2024-03-02T11:01:57;12.90;99.90
23579;DHT22;11967;50.852;4.400;2024-03-02T11:04:25;13.00;99.90
23579;DHT22;11967;50.852;4.400;2024-03-02T11:06:51;13.00;99.90
23579;DHT22;11967;50.852;4.400;2024-03-02T11:09:22;13.00;99.90
23579;DHT22;11967;50.852;4.400;2024-03-02T11:12:09;13.00;99.90
23579;DHT22;11967;50.852;4.400;2024-03-02T11:14:40;12.90;99.90
23579;DHT22;11967;50.852;4.400;2024-03-02T11:17:07;12.90;99.90
23579;DHT22;11967;50.852;4.400;2024-03-02T11:19:33;12.90;99.90
23579;DHT22;11967;50.852;4.400;2024-03-02T11:21:59;12.90;99.90
23579;DHT22;11967;50.852;4.400;2024-03-02T11:27:02;12.80;99.90
23579;DHT22;11967;50.852;4.400;2024-03-02T11:32:25;12.80;99.90
23579;DHT22;11967;50.852;4.400;2024-03-02T11:34:51;12.80;99.90
23579;DHT22;11967;50.852;4.400;2024-03-02T11:37:19;13.10;99.90
23579;DHT22;11967;50.852;4.400;2024-03-02T11:39:50;13.10;99.90
23579;DHT22;11967;50.852;4.400;2024-03-02T11:42:16;13.20;99.90
23579;DHT22;11967;50.852;4.400;2024-03-02T11:44:46;13.20;99.90
23579;DHT22;11967;50.852;4.400;2024-03-02T11:47:15;13.20;99.90
23579;DHT22;11967;50.852;4.400;2024-03-02T11:49:42;13.10;99.90
23579;DHT22;11967;50.852;4.400;2024-03-02T11:52:13;13.20;99.90
23579;DHT22;11967;50.852;4.400;2024-03-02T11:54:40;13.40;99.90
23579;DHT22;11967;50.852;4.400;2024-03-02T11:57:07;13.60;99.90
23579;DHT22;11967;50.852;4.400;2024-03-02T11:59:33;13.80;99.90
23579;DHT22;11967;50.852;4.400;2024-03-02T12:01:59;14.00;99.90
23579;DHT22;11967;50.852;4.400;2024-03-02T12:04:26;14.20;99.90
23579;DHT22;11967;50.852;4.400;2024-03-02T12:07:01;14.10;99.90
23579;DHT22;11967;50.852;4.400;2024-03-02T12:09:28;14.20;99.90
23579;DHT22;11967;50.852;4.400;2024-03-02T12:12:10;14.20;99.90
23579;DHT22;11967;50.852;4.400;2024-03-02T12:14:37;14.20;99.90
23579;DHT22;11967;50.852;4.400;2024-03-02T12:17:04;14.00;99.90
23579;DHT22;11967;50.852;4.400;2024-03-02T12:19:32;13.90;99.90
23579;DHT22;11967;50.852;4.400;2024-03-02T12:21:59;13.90;99.90
23579;DHT22;11967;50.852;4.400;2024-03-02T12:24:27;14.00;99.90
23579;DHT22;11967;50.852;4.400;2024-03-02T12:26:53;14.00;99.90
23579;DHT22;11967;50.852;4.400;2024-03-02T12:29:20;14.00;99.90
23579;DHT22;11967;50.852;4.400;2024-03-02T12:31:50;14.20;99.90
23579;DHT22;11967;50.852;4.400;2024-03-02T12:34:26;14.20;99.90
23579;DHT22;11967;50.852;4.400;2024-03-02T12:36:53;14.30;99.90
23579;DHT22;11967;50.852;4.400;2024-03-02T12:39:22;14.20;99.90
23579;DHT22;11967;50.852;4.400;2024-03-02T12:41:51;14.10;99.90
23579;DHT22;11967;50.852;4.400;2024-03-02T12:44:20;14.10;99.90
23579;DHT22;11967;50.852;4.400;2024-03-02T12:46:46;14.10;99.90
23579;DHT22;11967;50.852;4.400;2024-03-02T12:49:13;14.00;99.90
23579;DHT22;11967;50.852;4.400;2024-03-02T12:51:41;13.90;99.90
23579;DHT22;11967;50.852;4.400;2024-03-02T12:54:10;13.90;99.90
23579;DHT22;11967;50.852;4.400;2024-03-02T12:56:37;13.80;99.90
23579;DHT22;11967;50.852;4.400;2024-03-02T12:59:17;13.80;99.90
23579;DHT22;11967;50.852;4.400;2024-03-02T13:02:06;13.80;99.90
23579;DHT22;11967;50.852;4.400;2024-03-02T13:04:36;14.00;99.90
23579;DHT22;11967;50.852;4.400;2024-03-02T13:07:02;14.00;99.90
23579;DHT22;11967;50.852;4.400;2024-03-02T13:09:28;13.80;99.90
23579;DHT22;11967;50.852;4.400;2024-03-02T13:11:54;13.90;99.90
23579;DHT22;11967;50.852;4.400;2024-03-02T13:14:22;13.90;99.90
23579;DHT22;11967;50.852;4.400;2024-03-02T13:16:50;13.90;99.90
23579;DHT22;11967;50.852;4.400;2024-03-02T13:19:19;13.80;99.90
23579;DHT22;11967;50.852;4.400;2024-03-02T13:21:44;13.90;99.90
23579;DHT22;11967;50.852;4.400;2024-03-02T13:24:10;13.80;99.90
23579;DHT22;11967;50.852;4.400;2024-03-02T13:26:36;13.80;99.90
23579;DHT22;11967;50.852;4.400;2024-03-02T13:29:01;13.80;99.90
23579;DHT22;11967;50.852;4.400;2024-03-02T13:31:27;13.80;99.90
23579;DHT22;11967;50.852;4.400;2024-03-02T13:33:53;13.70;99.90
23579;DHT22;11967;50.852;4.400;2024-03-02T13:36:19;13.70;99.90
23579;DHT22;11967;50.852;4.400;2024-03-02T13:38:44;13.70;99.90
23579;DHT22;11967;50.852;4.400;2024-03-02T13:41:10;13.70;99.90
23579;DHT22;11967;50.852;4.400;2024-03-02T13:43:38;13.70;99.90
23579;DHT22;11967;50.852;4.400;2024-03-02T13:46:04;13.60;99.90
23579;DHT22;11967;50.852;4.400;2024-03-02T13:48:30;13.70;99.90
23579;DHT22;11967;50.852;4.400;2024-03-02T13:50:56;13.70;99.90
23579;DHT22;11967;50.852;4.400;2024-03-02T13:53:22;13.90;99.90
23579;DHT22;11967;50.852;4.400;2024-03-02T13:55:47;13.90;99.90
23579;DHT22;11967;50.852;4.400;2024-03-02T13:58:13;14.00;99.90
23579;DHT22;11967;50.852;4.400;2024-03-02T14:00:39;14.00;99.90
23579;DHT22;11967;50.852;4.400;2024-03-02T14:03:06;14.10;99.90
23579;DHT22;11967;50.852;4.400;2024-03-02T14:05:33;14.20;99.90
23579;DHT22;11967;50.852;4.400;2024-03-02T14:07:58;14.20;99.90
23579;DHT22;11967;50.852;4.400;2024-03-02T14:10:26;14.10;99.90
23579;DHT22;11967;50.852;4.400;2024-03-02T14:12:52;14.10;99.90
23579;DHT22;11967;50.852;4.400;2024-03-02T14:15:18;13.90;99.90
23579;DHT22;11967;50.852;4.400;2024-03-02T14:17:44;13.90;99.90
23579;DHT22;11967;50.852;4.400;2024-03-02T14:20:10;13.80;99.90
23579;DHT22;11967;50.852;4.400;2024-03-02T14:22:37;13.90;99.90
23579;DHT22;11967;50.852;4.400;2024-03-02T14:25:04;13.90;99.90
23579;DHT22;11967;50.852;4.400;2024-03-02T14:27:29;13.90;99.90
23579;DHT22;11967;50.852;4.400;2024-03-02T14:29:56;13.80;99.90
23579;DHT22;11967;50.852;4.400;2024-03-02T14:32:22;13.80;99.90
23579;DHT22;11967;50.852;4.400;2024-03-02T14:34:47;13.70;99.90
23579;DHT22;11967;50.852;4.400;2024-03-02T14:37:17;13.70;99.90
23579;DHT22;11967;50.852;4.400;2024-03-02T14:39:43;13.60;99.90
23579;DHT22;11967;50.852;4.400;2024-03-02T14:42:08;13.80;99.90
23579;DHT22;11967;50.852;4.400;2024-03-02T14:44:34;13.70;99.90
23579;DHT22;11967;50.852;4.400;2024-03-02T14:47:02;13.70;99.90
23579;DHT22;11967;50.852;4.400;2024-03-02T14:49:30;13.80;99.90
23579;DHT22;11967;50.852;4.400;2024-03-02T14:51:56;13.70;99.90
23579;DHT22;11967;50.852;4.400;2024-03-02T14:54:22;13.70;99.90
23579;DHT22;11967;50.852;4.400;2024-03-02T14:56:47;13.60;99.90
23579;DHT22;11967;50.852;4.400;2024-03-02T14:59:13;13.70;99.90
23579;DHT22;11967;50.852;4.400;2024-03-02T15:01:39;13.70;99.90
23579;DHT22;11967;50.852;4.400;2024-03-02T15:04:05;13.80;99.90
23579;DHT22;11967;50.852;4.400;2024-03-02T15:06:30;13.80;99.90
23579;DHT22;11967;50.852;4.400;2024-03-02T15:08:56;13.90;99.90
23579;DHT22;11967;50.852;4.400;2024-03-02T15:11:22;13.90;99.90
23579;DHT22;11967;50.852;4.400;2024-03-02T15:13:48;13.80;99.90
23579;DHT22;11967;50.852;4.400;2024-03-02T15:16:14;13.80;99.90
23579;DHT22;11967;50.852;4.400;2024-03-02T15:18:39;13.80;99.90
23579;DHT22;11967;50.852;4.400;2024-03-02T15:21:05;13.70;99.90
23579;DHT22;11967;50.852;4.400;2024-03-02T15:23:31;13.70;99.90
23579;DHT22;11967;50.852;4.400;2024-03-02T15:25:56;13.70;99.90
23579;DHT22;11967;50.852;4.400;2024-03-02T15:28:22;13.70;99.90
23579;DHT22;11967;50.852;4.400;2024-03-02T15:30:48;13.60;99.90
23579;DHT22;11967;50.852;4.400;2024-03-02T15:33:13;13.60;99.90
23579;DHT22;11967;50.852;4.400;2024-03-02T15:35:39;13.60;99.90
23579;DHT22;11967;50.852;4.400;2024-03-02T15:38:05;13.60;99.90
23579;DHT22;11967;50.852;4.400;2024-03-02T15:40:31;13.70;99.90
23579;DHT22;11967;50.852;4.400;2024-03-02T15:42:56;13.70;99.90
23579;DHT22;11967;50.852;4.400;2024-03-02T15:45:22;13.70;99.90
23579;DHT22;11967;50.852;4.400;2024-03-02T15:47:49;13.70;99.90
23579;DHT22;11967;50.852;4.400;2024-03-02T15:50:14;13.70;99.90
23579;DHT22;11967;50.852;4.400;2024-03-02T15:52:40;13.70;99.90
23579;DHT22;11967;50.852;4.400;2024-03-02T15:55:09;13.70;99.90
23579;DHT22;11967;50.852;4.400;2024-03-02T15:57:35;13.70;99.90
23579;DHT22;11967;50.852;4.400;2024-03-02T16:00:01;13.80;99.90